Kezdőlap
METAR-TAF:

METAR-TAF

Repülőterek :

Stigler, Oklahoma, Amerikai Egyesült Államok

földrajzi szélesség: 35-17-17N, földrajzi hosszúság: 095-05-38W, magasság: 183 m

Jelenlegi meteorológiai megfigyelések

A jelentés 27 perccel ezelõtt készült, 02:35 UTC
Szélcsend
Hőmérséklet 27°C
Páratartalom 70%
Légköri nyomás 1021 hPa
Látótávolság: 11.3 km
Derült ég

METAR: KGZL 220235Z AUTO 00000KT 7SM CLR 27/21 A3015 RMK AO2

Idő: 22:02 (03:02 UTC)


TAF: hiányzik

Meteorológiai megfigyelések és előrejelzések több, mint 4000 repülőtéren (METAR és TAF jelentéseket).

A térképen piros és sárga pontok jelzik az elérhető meteorológiai állomásokat.

Mozgassa az egeret a pont fölött, hogy megjelenjen az állomás neve.

Azután kattintson az időjárási megfigyelések és előrejelzések megtekintéséhez.

A térkép megváltoztatása: kattintson a fekete keresztel jelölt zöld gombra ráközelítéshez, a vonallal jelölt zöld gombra távolításhoz, vagy a zöld nyilakra a szomszédos térképek eléréséhez.


METAR-TAF: